University Oxford Airport
KUOX : now visible

Airfield :











YOU CAN JOIN US ON...

 
LOGIN :

Register | Disclaimer

   EN    FR    IT 

 









Legend :    VFR   Marginal VFR   IFR   Intensive IFR   Very Intensive IFR
Visi :
Ceiling :
>= 8 km
>= 3000ft
5 to 8 km
1000 to 3000 ft
1500m to 5 km
500 to 1000 ft
800 to 1500m
200 to 500 ft
< 800m
< 200 ft
Symbols :   Thunderstorms  Fog  Heavy snow  Heavy precipitations  Wind > 20 kt






- Airport Elevation : 452 ft


KUOX - University Oxford

CURRENT METAR :
  • 090255Z AUTO 14007KT 9SM BKN024 13/12 A2996 RMK AO2

EXPIRED METARs :
  • 090235Z AUTO VRB05G10KT 10SM OVC023 13/12 A2998 RMK AO2
  • 090215Z AUTO 17008KT 9SM BKN024 13/12 A2998 RMK AO2
  • 090155Z AUTO 16006KT 9SM SCT024 13/12 A2997 RMK AO2
  • 090135Z AUTO 15007KT 120V180 10SM SCT026 BKN030 13/12 A2996 RMK AO2
  • 090115Z AUTO 17007KT 10SM BKN025 BKN030 14/12 A2998 RMK AO2
  • 090055Z AUTO 17006KT 9SM BKN024 OVC028 14/12 A2999 RMK AO2
  • 090035Z AUTO 17006KT 10SM SCT025 BKN029 14/12 A2999 RMK AO2
  • 090015Z AUTO 16006KT 10SM FEW024 FEW030 14/12 A3000 RMK AO2

TAF N/A



MET'MAP, your aeronautical weather chart ! - Copyright ORBIFLY December 2007 - Disclaimer

ORBIFLY MET'MAP TEAM :

Programming & Development : Alexandra Zaïnal
Concept & original design : Baudouin d'Aumeries
Assistance for programming : Marc-Olivier Méhu
Technical & hardware support : Manuel Goepfert

Contact : metmap@orbifly.com




SOURCES & CREDITS :

   NOAA       Earth
Advisory